Bhera Weather



Bhera's Current Weather

Temprature 25.306o broken clouds

broken clouds

Rain: 0 %

Min Temprature25.306o
Max Temprature25.306o
Humidity39
Wind Speed1.79 m/h
Sun Rise05:32:38
Sun Set18:41:20
Current Time: 21-Apr-2019 05:12:55
Lat/Lon: 32.48, 72.91




Bhera's Geo Location



Bhera's Weather Forecast

Time Overall Temp Min Temp Max Temp Humidity Wind Speed Rain
21-Apr-2019 (Sun)
08:00:00 overcast clouds 28.130 28.129 28.130 35 1.43 m/h 0 %
11:00:00 broken clouds 32.350 32.350 32.350 27 1.36 m/h 0 %
14:00:00 clear sky 34.450 34.450 34.450 23 1.16 m/h 0 %
17:00:00 clear sky 34.150 34.150 34.150 23 1.39 m/h 0 %
20:00:00 clear sky 30.350 30.350 30.350 29 1.6 m/h 0 %
23:00:00 clear sky 28.830 28.830 28.830 32 1.89 m/h 0 %
22-Apr-2019 (Mon)
02:00:00 clear sky 27.870 27.870 27.870 33 2.24 m/h 0 %
05:00:00 clear sky 26.544 26.544 26.544 34 2.12 m/h 0 %
08:00:00 clear sky 30.126 30.126 30.126 28 1.89 m/h 0 %
11:00:00 clear sky 34.520 34.520 34.520 21 0.37 m/h 0 %
14:00:00 clear sky 36.415 36.415 36.415 19 1.65 m/h 0 %
17:00:00 clear sky 36.431 36.431 36.431 18 0.42 m/h 0 %
20:00:00 clear sky 31.750 31.750 31.750 25 2.48 m/h 0 %
23:00:00 clear sky 30.096 30.096 30.096 28 1.74 m/h 0 %
23-Apr-2019 (Tue)
02:00:00 few clouds 29.177 29.177 29.177 29 2.93 m/h 0 %
05:00:00 scattered clouds 27.926 27.926 27.926 29 3.29 m/h 0 %
08:00:00 overcast clouds 31.167 31.167 31.167 25 2.76 m/h 0 %
11:00:00 overcast clouds 35.650 35.650 35.650 17 2.87 m/h 0 %
14:00:00 clear sky 38.050 38.050 38.050 15 1.06 m/h 0 %
17:00:00 clear sky 37.650 37.650 37.650 15 1.06 m/h 0 %
20:00:00 few clouds 32.728 32.728 32.728 22 2.88 m/h 0 %
23:00:00 scattered clouds 31.150 31.150 31.150 23 2.6 m/h 0 %
24-Apr-2019 (Wed)
02:00:00 overcast clouds 28.982 28.982 28.982 28 3.65 m/h 0 %
05:00:00 overcast clouds 28.544 28.544 28.544 29 2.75 m/h 0 %
08:00:00 broken clouds 31.550 31.550 31.550 21 4.22 m/h 0 %
11:00:00 scattered clouds 36.708 36.708 36.708 14 5.14 m/h 0 %
14:00:00 scattered clouds 40.450 40.450 40.450 10 4.67 m/h 0 %
17:00:00 broken clouds 35.450 35.450 35.450 20 9.85 m/h 0 %
20:00:00 overcast clouds 29.855 29.855 29.855 32 7.79 m/h 0 %
23:00:00 overcast clouds 28.645 28.645 28.645 35 11.99 m/h 0 %
25-Apr-2019 (Thu)
02:00:00 light rain 28.450 28.450 28.450 35 3.07 m/h 13 %
05:00:00 overcast clouds 26.422 26.422 26.422 43 4.18 m/h 0 %
08:00:00 broken clouds 29.020 29.020 29.020 37 4.22 m/h 0 %
11:00:00 scattered clouds 34.090 34.090 34.090 25 2.53 m/h 0 %
14:00:00 clear sky 36.750 36.750 36.750 16 2.38 m/h 0 %
17:00:00 clear sky 36.611 36.611 36.611 15 1.45 m/h 0 %
20:00:00 clear sky 31.425 31.425 31.425 23 2.99 m/h 0 %
23:00:00 clear sky 29.943 29.943 29.943 24 1.53 m/h 0 %
26-Apr-2019 (Fri)
02:00:00 scattered clouds 28.232 28.232 28.232 28 2.46 m/h 0 %
05:00:00 broken clouds 27.126 27.126 27.126 27 3.83 m/h 0 %

Famous Cities (60)